sensor_id;sensor_type;location;lat;lon;timestamp;P1;durP1;ratioP1;P2;durP2;ratioP2
13973;SDS011;7060;43.770;4.008;2022-10-31T00:01:09;30.53;;;13.23;;
13973;SDS011;7060;43.770;4.008;2022-10-31T00:03:38;39.77;;;13.20;;
13973;SDS011;7060;43.770;4.008;2022-10-31T00:06:08;26.30;;;12.40;;
13973;SDS011;7060;43.770;4.008;2022-10-31T00:08:36;32.70;;;13.23;;
13973;SDS011;7060;43.770;4.008;2022-10-31T00:11:09;26.03;;;12.67;;
13973;SDS011;7060;43.770;4.008;2022-10-31T00:13:38;34.90;;;13.70;;
13973;SDS011;7060;43.770;4.008;2022-10-31T00:16:12;36.53;;;13.00;;
13973;SDS011;7060;43.770;4.008;2022-10-31T00:18:41;39.80;;;12.53;;
13973;SDS011;7060;43.770;4.008;2022-10-31T00:21:11;29.10;;;11.60;;
13973;SDS011;7060;43.770;4.008;2022-10-31T00:23:39;30.60;;;12.30;;
13973;SDS011;7060;43.770;4.008;2022-10-31T00:26:09;29.40;;;12.93;;
13973;SDS011;7060;43.770;4.008;2022-10-31T00:28:37;26.83;;;13.10;;
13973;SDS011;7060;43.770;4.008;2022-10-31T00:31:06;29.53;;;12.23;;
13973;SDS011;7060;43.770;4.008;2022-10-31T00:33:37;20.60;;;12.27;;
13973;SDS011;7060;43.770;4.008;2022-10-31T00:36:06;38.27;;;14.30;;
13973;SDS011;7060;43.770;4.008;2022-10-31T00:38:39;30.53;;;13.23;;
13973;SDS011;7060;43.770;4.008;2022-10-31T00:41:09;30.03;;;13.57;;
13973;SDS011;7060;43.770;4.008;2022-10-31T00:43:40;35.73;;;14.20;;
13973;SDS011;7060;43.770;4.008;2022-10-31T00:46:08;29.17;;;13.53;;
13973;SDS011;7060;43.770;4.008;2022-10-31T00:48:37;23.67;;;13.37;;
13973;SDS011;7060;43.770;4.008;2022-10-31T00:51:06;30.27;;;12.40;;
13973;SDS011;7060;43.770;4.008;2022-10-31T00:53:34;26.37;;;13.17;;
13973;SDS011;7060;43.770;4.008;2022-10-31T00:56:04;28.90;;;13.50;;
13973;SDS011;7060;43.770;4.008;2022-10-31T00:58:35;30.23;;;13.37;;
13973;SDS011;7060;43.770;4.008;2022-10-31T01:01:03;28.17;;;13.77;;
13973;SDS011;7060;43.770;4.008;2022-10-31T01:03:33;23.53;;;14.00;;
13973;SDS011;7060;43.770;4.008;2022-10-31T01:06:03;30.63;;;14.33;;
13973;SDS011;7060;43.770;4.008;2022-10-31T01:08:33;32.17;;;15.30;;
13973;SDS011;7060;43.770;4.008;2022-10-31T01:11:04;32.20;;;13.97;;
13973;SDS011;7060;43.770;4.008;2022-10-31T01:13:36;23.23;;;13.40;;
13973;SDS011;7060;43.770;4.008;2022-10-31T01:16:05;30.60;;;13.13;;
13973;SDS011;7060;43.770;4.008;2022-10-31T01:18:35;25.90;;;12.97;;
13973;SDS011;7060;43.770;4.008;2022-10-31T01:21:04;33.57;;;14.33;;
13973;SDS011;7060;43.770;4.008;2022-10-31T01:23:33;30.80;;;14.57;;
13973;SDS011;7060;43.770;4.008;2022-10-31T01:26:03;26.97;;;14.67;;
13973;SDS011;7060;43.770;4.008;2022-10-31T01:28:36;24.47;;;13.20;;
13973;SDS011;7060;43.770;4.008;2022-10-31T01:31:06;29.87;;;13.47;;
13973;SDS011;7060;43.770;4.008;2022-10-31T01:33:36;25.73;;;14.40;;
13973;SDS011;7060;43.770;4.008;2022-10-31T01:36:12;21.90;;;12.43;;
13973;SDS011;7060;43.770;4.008;2022-10-31T01:38:43;25.07;;;12.80;;
13973;SDS011;7060;43.770;4.008;2022-10-31T01:41:12;26.70;;;14.07;;
13973;SDS011;7060;43.770;4.008;2022-10-31T01:43:45;32.03;;;15.57;;
13973;SDS011;7060;43.770;4.008;2022-10-31T01:46:16;35.80;;;14.77;;
13973;SDS011;7060;43.770;4.008;2022-10-31T01:48:48;29.80;;;13.67;;
13973;SDS011;7060;43.770;4.008;2022-10-31T01:51:17;32.47;;;14.63;;
13973;SDS011;7060;43.770;4.008;2022-10-31T01:53:50;30.43;;;15.43;;
13973;SDS011;7060;43.770;4.008;2022-10-31T01:56:22;33.13;;;14.17;;
13973;SDS011;7060;43.770;4.008;2022-10-31T01:58:51;27.83;;;14.33;;
13973;SDS011;7060;43.770;4.008;2022-10-31T02:01:22;28.63;;;15.20;;
13973;SDS011;7060;43.770;4.008;2022-10-31T02:03:51;29.83;;;15.17;;
13973;SDS011;7060;43.770;4.008;2022-10-31T02:06:22;28.90;;;15.00;;
13973;SDS011;7060;43.770;4.008;2022-10-31T02:09:03;27.17;;;14.30;;
13973;SDS011;7060;43.770;4.008;2022-10-31T02:11:32;23.33;;;14.10;;
13973;SDS011;7060;43.770;4.008;2022-10-31T02:14:04;23.30;;;13.93;;
13973;SDS011;7060;43.770;4.008;2022-10-31T02:16:32;32.33;;;13.73;;
13973;SDS011;7060;43.770;4.008;2022-10-31T02:19:02;26.43;;;14.27;;
13973;SDS011;7060;43.770;4.008;2022-10-31T02:21:34;26.57;;;13.73;;
13973;SDS011;7060;43.770;4.008;2022-10-31T02:24:25;30.10;;;14.03;;
13973;SDS011;7060;43.770;4.008;2022-10-31T02:27:29;19.77;;;12.83;;
13973;SDS011;7060;43.770;4.008;2022-10-31T02:30:19;31.20;;;14.80;;
13973;SDS011;7060;43.770;4.008;2022-10-31T02:32:54;21.43;;;13.47;;
13973;SDS011;7060;43.770;4.008;2022-10-31T02:35:46;24.70;;;13.03;;
13973;SDS011;7060;43.770;4.008;2022-10-31T02:38:26;28.77;;;14.50;;
13973;SDS011;7060;43.770;4.008;2022-10-31T02:41:05;27.00;;;14.03;;
13973;SDS011;7060;43.770;4.008;2022-10-31T02:43:52;23.97;;;14.80;;
13973;SDS011;7060;43.770;4.008;2022-10-31T02:46:28;24.80;;;15.20;;
13973;SDS011;7060;43.770;4.008;2022-10-31T02:49:07;24.10;;;14.17;;
13973;SDS011;7060;43.770;4.008;2022-10-31T02:51:43;26.63;;;13.70;;
13973;SDS011;7060;43.770;4.008;2022-10-31T02:54:17;30.37;;;14.73;;
13973;SDS011;7060;43.770;4.008;2022-10-31T02:56:51;26.23;;;13.83;;
13973;SDS011;7060;43.770;4.008;2022-10-31T02:59:25;23.17;;;13.67;;
13973;SDS011;7060;43.770;4.008;2022-10-31T03:02:04;30.03;;;16.17;;
13973;SDS011;7060;43.770;4.008;2022-10-31T03:04:47;25.27;;;14.60;;
13973;SDS011;7060;43.770;4.008;2022-10-31T03:07:28;26.07;;;13.90;;
13973;SDS011;7060;43.770;4.008;2022-10-31T03:10:07;24.93;;;14.60;;
13973;SDS011;7060;43.770;4.008;2022-10-31T03:12:47;24.67;;;15.10;;
13973;SDS011;7060;43.770;4.008;2022-10-31T03:15:25;26.30;;;13.70;;
13973;SDS011;7060;43.770;4.008;2022-10-31T03:17:58;27.47;;;14.77;;
13973;SDS011;7060;43.770;4.008;2022-10-31T03:20:35;29.77;;;15.70;;
13973;SDS011;7060;43.770;4.008;2022-10-31T03:23:08;29.40;;;16.10;;
13973;SDS011;7060;43.770;4.008;2022-10-31T03:25:40;27.63;;;15.10;;
13973;SDS011;7060;43.770;4.008;2022-10-31T03:28:10;24.97;;;14.37;;
13973;SDS011;7060;43.770;4.008;2022-10-31T03:30:41;24.90;;;13.83;;
13973;SDS011;7060;43.770;4.008;2022-10-31T03:33:13;25.87;;;14.87;;
13973;SDS011;7060;43.770;4.008;2022-10-31T03:35:47;27.70;;;14.97;;
13973;SDS011;7060;43.770;4.008;2022-10-31T03:38:18;28.03;;;14.53;;
13973;SDS011;7060;43.770;4.008;2022-10-31T03:40:48;27.63;;;15.17;;
13973;SDS011;7060;43.770;4.008;2022-10-31T03:43:20;25.03;;;14.83;;
13973;SDS011;7060;43.770;4.008;2022-10-31T03:45:52;26.13;;;14.60;;
13973;SDS011;7060;43.770;4.008;2022-10-31T03:48:21;26.63;;;14.20;;
13973;SDS011;7060;43.770;4.008;2022-10-31T03:50:56;28.43;;;15.50;;
13973;SDS011;7060;43.770;4.008;2022-10-31T03:53:32;28.23;;;15.10;;
13973;SDS011;7060;43.770;4.008;2022-10-31T03:56:07;28.70;;;14.87;;
13973;SDS011;7060;43.770;4.008;2022-10-31T03:58:42;25.57;;;14.33;;
13973;SDS011;7060;43.770;4.008;2022-10-31T04:01:13;27.33;;;15.37;;
13973;SDS011;7060;43.770;4.008;2022-10-31T04:03:45;34.03;;;16.93;;
13973;SDS011;7060;43.770;4.008;2022-10-31T04:06:15;25.43;;;15.03;;
13973;SDS011;7060;43.770;4.008;2022-10-31T04:08:48;32.60;;;16.27;;
13973;SDS011;7060;43.770;4.008;2022-10-31T04:11:19;31.80;;;15.03;;
13973;SDS011;7060;43.770;4.008;2022-10-31T04:14:15;28.87;;;15.13;;
13973;SDS011;7060;43.770;4.008;2022-10-31T04:16:44;25.67;;;15.10;;
13973;SDS011;7060;43.770;4.008;2022-10-31T04:19:13;25.73;;;15.00;;
13973;SDS011;7060;43.770;4.008;2022-10-31T04:21:43;35.17;;;16.00;;
13973;SDS011;7060;43.770;4.008;2022-10-31T04:24:12;27.43;;;14.77;;
13973;SDS011;7060;43.770;4.008;2022-10-31T04:26:40;26.17;;;14.50;;
13973;SDS011;7060;43.770;4.008;2022-10-31T04:29:08;30.90;;;15.10;;
13973;SDS011;7060;43.770;4.008;2022-10-31T04:31:37;28.07;;;14.40;;
13973;SDS011;7060;43.770;4.008;2022-10-31T04:34:06;32.17;;;15.77;;
13973;SDS011;7060;43.770;4.008;2022-10-31T04:36:34;24.57;;;14.20;;
13973;SDS011;7060;43.770;4.008;2022-10-31T04:39:04;30.97;;;13.83;;
13973;SDS011;7060;43.770;4.008;2022-10-31T04:41:45;24.33;;;12.67;;
13973;SDS011;7060;43.770;4.008;2022-10-31T04:44:14;23.63;;;13.00;;
13973;SDS011;7060;43.770;4.008;2022-10-31T04:46:46;24.87;;;12.93;;
13973;SDS011;7060;43.770;4.008;2022-10-31T04:49:14;21.97;;;12.63;;
13973;SDS011;7060;43.770;4.008;2022-10-31T04:51:44;20.07;;;12.43;;
13973;SDS011;7060;43.770;4.008;2022-10-31T04:54:14;27.40;;;12.60;;
13973;SDS011;7060;43.770;4.008;2022-10-31T04:57:14;26.80;;;12.50;;
13973;SDS011;7060;43.770;4.008;2022-10-31T04:59:43;24.37;;;11.97;;
13973;SDS011;7060;43.770;4.008;2022-10-31T05:02:12;26.13;;;12.57;;
13973;SDS011;7060;43.770;4.008;2022-10-31T05:04:53;20.97;;;11.20;;
13973;SDS011;7060;43.770;4.008;2022-10-31T05:07:21;20.93;;;11.70;;
13973;SDS011;7060;43.770;4.008;2022-10-31T05:09:51;22.80;;;12.53;;
13973;SDS011;7060;43.770;4.008;2022-10-31T05:12:20;20.10;;;12.87;;
13973;SDS011;7060;43.770;4.008;2022-10-31T05:15:14;19.17;;;11.83;;
13973;SDS011;7060;43.770;4.008;2022-10-31T05:18:02;20.10;;;11.30;;
13973;SDS011;7060;43.770;4.008;2022-10-31T05:20:49;24.60;;;11.07;;
13973;SDS011;7060;43.770;4.008;2022-10-31T05:23:28;18.43;;;10.60;;
13973;SDS011;7060;43.770;4.008;2022-10-31T05:25:58;23.00;;;12.07;;
13973;SDS011;7060;43.770;4.008;2022-10-31T05:28:26;17.80;;;10.07;;
13973;SDS011;7060;43.770;4.008;2022-10-31T05:30:55;21.90;;;11.47;;
13973;SDS011;7060;43.770;4.008;2022-10-31T05:33:23;15.37;;;10.13;;
13973;SDS011;7060;43.770;4.008;2022-10-31T05:36:10;19.40;;;11.37;;
13973;SDS011;7060;43.770;4.008;2022-10-31T05:38:48;18.67;;;11.03;;
13973;SDS011;7060;43.770;4.008;2022-10-31T05:41:24;21.50;;;11.53;;
13973;SDS011;7060;43.770;4.008;2022-10-31T05:44:01;18.80;;;11.73;;
13973;SDS011;7060;43.770;4.008;2022-10-31T05:46:34;21.80;;;10.87;;
13973;SDS011;7060;43.770;4.008;2022-10-31T05:49:31;17.27;;;10.83;;
13973;SDS011;7060;43.770;4.008;2022-10-31T05:52:02;20.97;;;10.37;;
13973;SDS011;7060;43.770;4.008;2022-10-31T05:54:40;15.40;;;10.47;;
13973;SDS011;7060;43.770;4.008;2022-10-31T05:57:10;17.50;;;11.20;;
13973;SDS011;7060;43.770;4.008;2022-10-31T05:59:38;18.20;;;10.80;;
13973;SDS011;7060;43.770;4.008;2022-10-31T06:02:06;21.07;;;11.43;;
13973;SDS011;7060;43.770;4.008;2022-10-31T06:04:54;18.57;;;11.47;;
13973;SDS011;7060;43.770;4.008;2022-10-31T06:07:22;17.20;;;10.67;;
13973;SDS011;7060;43.770;4.008;2022-10-31T06:09:51;18.50;;;10.80;;
13973;SDS011;7060;43.770;4.008;2022-10-31T06:12:22;20.43;;;11.87;;
13973;SDS011;7060;43.770;4.008;2022-10-31T06:15:28;17.40;;;11.30;;
13973;SDS011;7060;43.770;4.008;2022-10-31T06:18:00;19.00;;;12.03;;
13973;SDS011;7060;43.770;4.008;2022-10-31T06:20:45;20.60;;;11.50;;
13973;SDS011;7060;43.770;4.008;2022-10-31T06:23:14;20.43;;;11.70;;
13973;SDS011;7060;43.770;4.008;2022-10-31T06:25:47;22.37;;;12.00;;
13973;SDS011;7060;43.770;4.008;2022-10-31T06:28:18;18.33;;;11.10;;
13973;SDS011;7060;43.770;4.008;2022-10-31T06:30:51;20.43;;;12.23;;
13973;SDS011;7060;43.770;4.008;2022-10-31T06:33:20;18.00;;;11.23;;
13973;SDS011;7060;43.770;4.008;2022-10-31T06:35:56;20.50;;;11.53;;
13973;SDS011;7060;43.770;4.008;2022-10-31T06:38:25;19.60;;;12.67;;
13973;SDS011;7060;43.770;4.008;2022-10-31T06:40:55;18.47;;;11.33;;
13973;SDS011;7060;43.770;4.008;2022-10-31T06:43:28;24.10;;;10.67;;
13973;SDS011;7060;43.770;4.008;2022-10-31T06:46:19;17.90;;;10.20;;
13973;SDS011;7060;43.770;4.008;2022-10-31T06:49:06;15.27;;;9.80;;
13973;SDS011;7060;43.770;4.008;2022-10-31T06:51:55;16.93;;;10.60;;
13973;SDS011;7060;43.770;4.008;2022-10-31T06:54:24;19.23;;;10.67;;
13973;SDS011;7060;43.770;4.008;2022-10-31T06:56:53;19.27;;;10.40;;
13973;SDS011;7060;43.770;4.008;2022-10-31T06:59:22;14.63;;;10.07;;
13973;SDS011;7060;43.770;4.008;2022-10-31T07:02:04;21.17;;;10.67;;
13973;SDS011;7060;43.770;4.008;2022-10-31T07:04:33;19.40;;;9.80;;
13973;SDS011;7060;43.770;4.008;2022-10-31T07:07:02;23.33;;;10.63;;
13973;SDS011;7060;43.770;4.008;2022-10-31T07:09:31;21.13;;;11.57;;
13973;SDS011;7060;43.770;4.008;2022-10-31T07:12:02;20.93;;;12.23;;
13973;SDS011;7060;43.770;4.008;2022-10-31T07:14:36;23.53;;;13.77;;
13973;SDS011;7060;43.770;4.008;2022-10-31T07:17:05;27.87;;;13.87;;
13973;SDS011;7060;43.770;4.008;2022-10-31T07:19:38;23.73;;;14.00;;
13973;SDS011;7060;43.770;4.008;2022-10-31T07:22:07;20.80;;;12.30;;
13973;SDS011;7060;43.770;4.008;2022-10-31T07:24:37;24.67;;;13.53;;
13973;SDS011;7060;43.770;4.008;2022-10-31T07:27:24;22.90;;;13.20;;
13973;SDS011;7060;43.770;4.008;2022-10-31T07:29:54;16.93;;;12.03;;
13973;SDS011;7060;43.770;4.008;2022-10-31T07:32:22;19.77;;;12.27;;
13973;SDS011;7060;43.770;4.008;2022-10-31T07:34:55;21.27;;;11.27;;
13973;SDS011;7060;43.770;4.008;2022-10-31T07:37:32;18.83;;;12.30;;
13973;SDS011;7060;43.770;4.008;2022-10-31T07:40:01;17.83;;;11.60;;
13973;SDS011;7060;43.770;4.008;2022-10-31T07:42:34;18.00;;;12.27;;
13973;SDS011;7060;43.770;4.008;2022-10-31T07:45:04;21.43;;;11.83;;
13973;SDS011;7060;43.770;4.008;2022-10-31T07:48:09;19.93;;;10.50;;
13973;SDS011;7060;43.770;4.008;2022-10-31T07:50:56;19.77;;;11.27;;
13973;SDS011;7060;43.770;4.008;2022-10-31T07:53:45;20.50;;;10.07;;
13973;SDS011;7060;43.770;4.008;2022-10-31T07:56:26;18.80;;;10.07;;
13973;SDS011;7060;43.770;4.008;2022-10-31T07:58:55;21.40;;;9.77;;
13973;SDS011;7060;43.770;4.008;2022-10-31T08:01:25;19.03;;;10.53;;
13973;SDS011;7060;43.770;4.008;2022-10-31T08:04:13;19.50;;;10.13;;
13973;SDS011;7060;43.770;4.008;2022-10-31T08:07:00;18.10;;;11.17;;
13973;SDS011;7060;43.770;4.008;2022-10-31T08:09:33;18.33;;;10.43;;
13973;SDS011;7060;43.770;4.008;2022-10-31T08:12:09;17.63;;;11.07;;
13973;SDS011;7060;43.770;4.008;2022-10-31T08:14:37;18.80;;;10.20;;
13973;SDS011;7060;43.770;4.008;2022-10-31T08:17:07;18.77;;;10.27;;
13973;SDS011;7060;43.770;4.008;2022-10-31T08:19:45;20.10;;;10.87;;
13973;SDS011;7060;43.770;4.008;2022-10-31T08:22:15;18.37;;;10.80;;
13973;SDS011;7060;43.770;4.008;2022-10-31T08:24:43;21.73;;;10.20;;
13973;SDS011;7060;43.770;4.008;2022-10-31T08:27:11;22.67;;;10.90;;
13973;SDS011;7060;43.770;4.008;2022-10-31T08:29:40;14.07;;;9.50;;
13973;SDS011;7060;43.770;4.008;2022-10-31T08:32:10;17.07;;;10.20;;
13973;SDS011;7060;43.770;4.008;2022-10-31T08:34:56;20.13;;;10.40;;
13973;SDS011;7060;43.770;4.008;2022-10-31T08:37:40;18.53;;;10.90;;
13973;SDS011;7060;43.770;4.008;2022-10-31T08:40:09;16.57;;;9.20;;
13973;SDS011;7060;43.770;4.008;2022-10-31T08:42:39;14.90;;;10.40;;
13973;SDS011;7060;43.770;4.008;2022-10-31T08:45:08;19.60;;;10.57;;
13973;SDS011;7060;43.770;4.008;2022-10-31T08:47:38;20.20;;;10.70;;
13973;SDS011;7060;43.770;4.008;2022-10-31T08:50:07;17.13;;;9.40;;
13973;SDS011;7060;43.770;4.008;2022-10-31T08:52:36;19.57;;;11.13;;
13973;SDS011;7060;43.770;4.008;2022-10-31T08:55:25;15.77;;;9.93;;
13973;SDS011;7060;43.770;4.008;2022-10-31T08:58:02;16.57;;;9.17;;
13973;SDS011;7060;43.770;4.008;2022-10-31T09:00:44;24.13;;;9.80;;
13973;SDS011;7060;43.770;4.008;2022-10-31T09:03:18;23.20;;;10.57;;
13973;SDS011;7060;43.770;4.008;2022-10-31T09:05:48;17.80;;;10.13;;
13973;SDS011;7060;43.770;4.008;2022-10-31T09:08:17;20.07;;;9.77;;
13973;SDS011;7060;43.770;4.008;2022-10-31T09:10:46;16.17;;;9.70;;
13973;SDS011;7060;43.770;4.008;2022-10-31T09:13:21;21.00;;;10.57;;
13973;SDS011;7060;43.770;4.008;2022-10-31T09:16:26;22.77;;;10.50;;
13973;SDS011;7060;43.770;4.008;2022-10-31T09:18:55;23.63;;;10.10;;
13973;SDS011;7060;43.770;4.008;2022-10-31T09:21:24;18.67;;;9.80;;
13973;SDS011;7060;43.770;4.008;2022-10-31T09:23:52;23.63;;;10.47;;
13973;SDS011;7060;43.770;4.008;2022-10-31T09:26:21;19.50;;;10.57;;
13973;SDS011;7060;43.770;4.008;2022-10-31T09:29:16;19.83;;;10.53;;
13973;SDS011;7060;43.770;4.008;2022-10-31T09:31:48;20.10;;;9.47;;
13973;SDS011;7060;43.770;4.008;2022-10-31T09:34:34;20.13;;;10.70;;
13973;SDS011;7060;43.770;4.008;2022-10-31T09:37:04;19.53;;;10.93;;
13973;SDS011;7060;43.770;4.008;2022-10-31T09:39:34;20.73;;;9.97;;
13973;SDS011;7060;43.770;4.008;2022-10-31T09:42:25;24.13;;;10.53;;
13973;SDS011;7060;43.770;4.008;2022-10-31T09:45:14;24.47;;;11.53;;
13973;SDS011;7060;43.770;4.008;2022-10-31T09:47:50;21.33;;;10.40;;
13973;SDS011;7060;43.770;4.008;2022-10-31T09:50:32;24.47;;;9.83;;
13973;SDS011;7060;43.770;4.008;2022-10-31T09:53:34;21.73;;;9.97;;
13973;SDS011;7060;43.770;4.008;2022-10-31T09:56:10;21.97;;;10.57;;
13973;SDS011;7060;43.770;4.008;2022-10-31T09:58:42;22.50;;;10.43;;
13973;SDS011;7060;43.770;4.008;2022-10-31T10:01:16;17.87;;;9.97;;
13973;SDS011;7060;43.770;4.008;2022-10-31T10:03:54;17.87;;;9.13;;
13973;SDS011;7060;43.770;4.008;2022-10-31T10:06:51;19.77;;;9.13;;
13973;SDS011;7060;43.770;4.008;2022-10-31T10:09:38;20.37;;;9.80;;
13973;SDS011;7060;43.770;4.008;2022-10-31T10:12:36;18.50;;;8.17;;
13973;SDS011;7060;43.770;4.008;2022-10-31T10:15:24;17.33;;;9.50;;
13973;SDS011;7060;43.770;4.008;2022-10-31T10:18:05;24.60;;;8.77;;
13973;SDS011;7060;43.770;4.008;2022-10-31T10:20:43;19.70;;;8.43;;
13973;SDS011;7060;43.770;4.008;2022-10-31T10:23:32;21.43;;;9.57;;
13973;SDS011;7060;43.770;4.008;2022-10-31T10:26:16;25.73;;;9.07;;
13973;SDS011;7060;43.770;4.008;2022-10-31T10:28:47;21.13;;;7.53;;
13973;SDS011;7060;43.770;4.008;2022-10-31T10:31:20;26.87;;;9.50;;
13973;SDS011;7060;43.770;4.008;2022-10-31T10:33:55;20.77;;;8.37;;
13973;SDS011;7060;43.770;4.008;2022-10-31T10:36:30;17.00;;;7.90;;
13973;SDS011;7060;43.770;4.008;2022-10-31T10:39:08;21.23;;;9.13;;
13973;SDS011;7060;43.770;4.008;2022-10-31T10:41:43;18.50;;;7.93;;
13973;SDS011;7060;43.770;4.008;2022-10-31T10:44:28;16.33;;;8.00;;
13973;SDS011;7060;43.770;4.008;2022-10-31T10:47:14;19.07;;;8.03;;
13973;SDS011;7060;43.770;4.008;2022-10-31T10:50:00;18.17;;;8.00;;
13973;SDS011;7060;43.770;4.008;2022-10-31T10:52:35;15.70;;;7.07;;
13973;SDS011;7060;43.770;4.008;2022-10-31T10:55:19;15.27;;;7.90;;
13973;SDS011;7060;43.770;4.008;2022-10-31T10:57:58;20.63;;;7.70;;
13973;SDS011;7060;43.770;4.008;2022-10-31T11:00:29;21.00;;;7.20;;
13973;SDS011;7060;43.770;4.008;2022-10-31T11:02:59;15.63;;;7.57;;
13973;SDS011;7060;43.770;4.008;2022-10-31T11:05:35;19.47;;;7.50;;
13973;SDS011;7060;43.770;4.008;2022-10-31T11:08:06;20.27;;;7.33;;
13973;SDS011;7060;43.770;4.008;2022-10-31T11:10:37;18.77;;;6.60;;
13973;SDS011;7060;43.770;4.008;2022-10-31T11:13:14;19.30;;;6.73;;
13973;SDS011;7060;43.770;4.008;2022-10-31T11:15:50;21.93;;;7.00;;
13973;SDS011;7060;43.770;4.008;2022-10-31T11:18:24;17.77;;;6.33;;
13973;SDS011;7060;43.770;4.008;2022-10-31T11:20:54;18.10;;;6.77;;
13973;SDS011;7060;43.770;4.008;2022-10-31T11:23:24;17.50;;;6.43;;
13973;SDS011;7060;43.770;4.008;2022-10-31T11:25:56;19.13;;;6.20;;
13973;SDS011;7060;43.770;4.008;2022-10-31T11:28:25;18.00;;;6.03;;
13973;SDS011;7060;43.770;4.008;2022-10-31T11:30:56;18.90;;;6.53;;
13973;SDS011;7060;43.770;4.008;2022-10-31T11:33:28;16.87;;;6.07;;
13973;SDS011;7060;43.770;4.008;2022-10-31T11:36:00;13.60;;;5.93;;
13973;SDS011;7060;43.770;4.008;2022-10-31T11:38:31;15.53;;;5.93;;
13973;SDS011;7060;43.770;4.008;2022-10-31T11:41:08;15.30;;;6.67;;
13973;SDS011;7060;43.770;4.008;2022-10-31T11:43:46;19.10;;;6.40;;
13973;SDS011;7060;43.770;4.008;2022-10-31T11:46:18;17.83;;;7.00;;
13973;SDS011;7060;43.770;4.008;2022-10-31T11:48:50;12.40;;;5.80;;
13973;SDS011;7060;43.770;4.008;2022-10-31T11:51:22;17.53;;;6.53;;
13973;SDS011;7060;43.770;4.008;2022-10-31T11:53:54;18.27;;;6.93;;
13973;SDS011;7060;43.770;4.008;2022-10-31T11:56:38;19.50;;;6.85;;
13973;SDS011;7060;43.770;4.008;2022-10-31T11:59:15;14.75;;;5.70;;
13973;SDS011;7060;43.770;4.008;2022-10-31T12:01:47;16.70;;;6.83;;
13973;SDS011;7060;43.770;4.008;2022-10-31T12:04:17;16.20;;;5.78;;
13973;SDS011;7060;43.770;4.008;2022-10-31T12:06:46;23.13;;;6.90;;
13973;SDS011;7060;43.770;4.008;2022-10-31T12:09:18;15.90;;;6.45;;
13973;SDS011;7060;43.770;4.008;2022-10-31T12:11:54;16.00;;;6.23;;
13973;SDS011;7060;43.770;4.008;2022-10-31T12:14:36;15.03;;;5.87;;
13973;SDS011;7060;43.770;4.008;2022-10-31T12:17:13;11.93;;;5.75;;
13973;SDS011;7060;43.770;4.008;2022-10-31T12:19:46;18.63;;;6.23;;
13973;SDS011;7060;43.770;4.008;2022-10-31T12:22:27;14.77;;;6.20;;
13973;SDS011;7060;43.770;4.008;2022-10-31T12:25:11;20.20;;;7.00;;
13973;SDS011;7060;43.770;4.008;2022-10-31T12:27:59;16.15;;;6.07;;
13973;SDS011;7060;43.770;4.008;2022-10-31T12:30:46;15.32;;;6.20;;
13973;SDS011;7060;43.770;4.008;2022-10-31T12:33:34;14.27;;;6.28;;
13973;SDS011;7060;43.770;4.008;2022-10-31T12:36:18;13.53;;;6.03;;
13973;SDS011;7060;43.770;4.008;2022-10-31T12:38:57;19.23;;;7.20;;
13973;SDS011;7060;43.770;4.008;2022-10-31T12:41:46;12.00;;;6.03;;
13973;SDS011;7060;43.770;4.008;2022-10-31T12:44:29;18.15;;;6.10;;
13973;SDS011;7060;43.770;4.008;2022-10-31T12:47:14;16.33;;;6.15;;
13973;SDS011;7060;43.770;4.008;2022-10-31T12:50:06;20.73;;;6.60;;
13973;SDS011;7060;43.770;4.008;2022-10-31T12:52:51;12.60;;;6.20;;
13973;SDS011;7060;43.770;4.008;2022-10-31T12:55:31;16.13;;;5.97;;
13973;SDS011;7060;43.770;4.008;2022-10-31T12:58:13;19.95;;;6.30;;
13973;SDS011;7060;43.770;4.008;2022-10-31T13:00:46;13.57;;;5.88;;
13973;SDS011;7060;43.770;4.008;2022-10-31T13:03:25;15.07;;;6.18;;
13973;SDS011;7060;43.770;4.008;2022-10-31T13:06:02;19.88;;;6.80;;
13973;SDS011;7060;43.770;4.008;2022-10-31T13:08:36;14.75;;;6.22;;
13973;SDS011;7060;43.770;4.008;2022-10-31T13:11:10;14.20;;;5.85;;
13973;SDS011;7060;43.770;4.008;2022-10-31T13:13:46;15.02;;;5.78;;
13973;SDS011;7060;43.770;4.008;2022-10-31T13:16:21;18.00;;;5.72;;
13973;SDS011;7060;43.770;4.008;2022-10-31T13:18:54;17.10;;;6.72;;
13973;SDS011;7060;43.770;4.008;2022-10-31T13:21:27;11.02;;;5.28;;
13973;SDS011;7060;43.770;4.008;2022-10-31T13:24:04;14.65;;;6.05;;
13973;SDS011;7060;43.770;4.008;2022-10-31T13:26:41;12.80;;;5.75;;
13973;SDS011;7060;43.770;4.008;2022-10-31T13:29:17;15.23;;;4.82;;
13973;SDS011;7060;43.770;4.008;2022-10-31T13:31:52;21.25;;;6.88;;
13973;SDS011;7060;43.770;4.008;2022-10-31T13:34:25;18.67;;;6.50;;
13973;SDS011;7060;43.770;4.008;2022-10-31T13:36:59;17.60;;;5.38;;
13973;SDS011;7060;43.770;4.008;2022-10-31T13:39:49;20.40;;;7.03;;
13973;SDS011;7060;43.770;4.008;2022-10-31T13:42:33;16.73;;;5.93;;
13973;SDS011;7060;43.770;4.008;2022-10-31T13:45:13;17.67;;;6.35;;
13973;SDS011;7060;43.770;4.008;2022-10-31T13:47:56;15.02;;;5.35;;
13973;SDS011;7060;43.770;4.008;2022-10-31T13:50:27;29.50;;;6.88;;
13973;SDS011;7060;43.770;4.008;2022-10-31T13:53:13;18.00;;;5.50;;
13973;SDS011;7060;43.770;4.008;2022-10-31T13:55:50;19.88;;;6.18;;
13973;SDS011;7060;43.770;4.008;2022-10-31T13:58:30;19.65;;;6.72;;
13973;SDS011;7060;43.770;4.008;2022-10-31T14:01:01;21.45;;;7.05;;
13973;SDS011;7060;43.770;4.008;2022-10-31T14:03:42;19.63;;;6.13;;
13973;SDS011;7060;43.770;4.008;2022-10-31T14:06:37;17.55;;;6.75;;
13973;SDS011;7060;43.770;4.008;2022-10-31T14:09:18;15.73;;;6.35;;
13973;SDS011;7060;43.770;4.008;2022-10-31T14:11:59;17.75;;;6.15;;
13973;SDS011;7060;43.770;4.008;2022-10-31T14:14:42;19.60;;;6.60;;
13973;SDS011;7060;43.770;4.008;2022-10-31T14:17:17;19.10;;;6.67;;
13973;SDS011;7060;43.770;4.008;2022-10-31T14:22:51;20.97;;;6.33;;
13973;SDS011;7060;43.770;4.008;2022-10-31T14:28:18;14.87;;;6.20;;
13973;SDS011;7060;43.770;4.008;2022-10-31T14:30:51;20.13;;;5.70;;
13973;SDS011;7060;43.770;4.008;2022-10-31T14:33:20;23.40;;;6.95;;
13973;SDS011;7060;43.770;4.008;2022-10-31T14:35:54;20.90;;;6.13;;
13973;SDS011;7060;43.770;4.008;2022-10-31T14:38:42;19.97;;;6.73;;
13973;SDS011;7060;43.770;4.008;2022-10-31T14:41:32;18.63;;;6.30;;
13973;SDS011;7060;43.770;4.008;2022-10-31T14:47:16;16.60;;;6.63;;
13973;SDS011;7060;43.770;4.008;2022-10-31T14:49:57;19.07;;;7.50;;
13973;SDS011;7060;43.770;4.008;2022-10-31T14:52:38;14.38;;;5.78;;
13973;SDS011;7060;43.770;4.008;2022-10-31T14:55:11;14.37;;;6.30;;
13973;SDS011;7060;43.770;4.008;2022-10-31T14:57:47;14.20;;;6.00;;
13973;SDS011;7060;43.770;4.008;2022-10-31T15:00:19;17.27;;;6.53;;
13973;SDS011;7060;43.770;4.008;2022-10-31T15:02:51;18.70;;;7.03;;
13973;SDS011;7060;43.770;4.008;2022-10-31T15:05:28;22.07;;;7.23;;
13973;SDS011;7060;43.770;4.008;2022-10-31T15:07:58;18.63;;;6.27;;
13973;SDS011;7060;43.770;4.008;2022-10-31T15:10:28;23.85;;;6.65;;
13973;SDS011;7060;43.770;4.008;2022-10-31T15:13:08;17.30;;;7.57;;
13973;SDS011;7060;43.770;4.008;2022-10-31T15:15:37;22.08;;;7.18;;
13973;SDS011;7060;43.770;4.008;2022-10-31T15:18:13;15.23;;;6.77;;
13973;SDS011;7060;43.770;4.008;2022-10-31T15:20:45;19.77;;;7.03;;
13973;SDS011;7060;43.770;4.008;2022-10-31T15:23:15;18.20;;;6.38;;
13973;SDS011;7060;43.770;4.008;2022-10-31T15:25:49;18.90;;;6.43;;
13973;SDS011;7060;43.770;4.008;2022-10-31T15:28:21;15.13;;;6.30;;
13973;SDS011;7060;43.770;4.008;2022-10-31T15:30:52;18.70;;;6.67;;
13973;SDS011;7060;43.770;4.008;2022-10-31T15:33:23;21.03;;;6.77;;
13973;SDS011;7060;43.770;4.008;2022-10-31T15:35:57;15.70;;;6.67;;
13973;SDS011;7060;43.770;4.008;2022-10-31T15:38:27;18.97;;;6.77;;